Contact Us:
Email: info@sawbill.com
Phone: (218)663-7150
Fax: (218)663-7980
Mail: 4620 Sawbill Trail
Box 2129
Tofte, MN 55615


Powered by
Movable Type 3.15
 
Sawbill Weather History Archives: August 2012
Current Sawbill Weather History | « July 2012 | September 2012 »


Date

High
Temperature

Low
Temperature

Barometric
Pressure

Relative
Humidity 7AM

9 AM
Temperature

Moisture

Snow

8/31/12 74 51 30.47 71% 52 0
8/30/12 80 55 30.27 75% 55 Trace
8/29/12 78 49 29.94 88% 60 0
8/28/12 71 49 30.21 76% 49 0
8/27/12 76 49 30.03 74% 50 0
8/26/12 76 44 29.92 92% 52 0
8/25/12 75 64 30.12 91% 64 .1"
8/24/12 76 60 30.09 98% 66 0
8/23/12 71 60 30.06 98% 61 1.68"
8/22/12 80 56 30.12 83% 60 0
8/21/12 74 50 30.12 65% 61 0
8/20/12 73 44 30.08 62% 52 .02"
8/19/12 65 46 30.15 77% 51 0
8/18/12 66 44 30.18 80% 46 Trace
8/17/12 64 47 30.12 81% 50 .02"
8/16/12 63 47 30.15 77% 47 .05"
8/15/12 72 59 29.88 83% 57 .05"
8/14/12 71 50 30.09 82% 53 0
8/13/12 72 52 30.15 85% 58 0
8/12/12 72 54 30.12 96% 59 Trace
8/11/12 72 47 30.18 80% 52 0
8/10/12 69 48 30.27 74% 48 0
8/9/12 63 50 30.39 86% 56 Trace
8/8/12 70 57 30.27 98% 57 .79"
8/7/12 70 58 30.21 83% 58 0
8/6/12 75 56 30.18 80% 59 0
8/5/12 68 55 30.18 70% 60 0
8/4/12 71 53 30.15 75% 55 .08"
8/3/12 74 62 29.97 98% 62 .48"
8/2/12 75 60 29.92 96% 60 0
8/1/12 83 60 30.03 77% 66.6 .01"
 


Home I Trip Planning I Rentals and Outfitting I Reservations I Campgrounds I Sawbill Store I Sawbill News I Contact

© 1997 - 2017, Sawbill Canoe Outfitters, Inc. I Privacy Policy